»·PEaware :: N323DE KAJO-KVCV

N323DE :: KAJO-KVCV

FLIGHT INFORMATION

Flight Status: Arrived
Operator: Privately registered:
United States
More flights under this callsign
Pilot: John H. (10732)
Aircraft: Unknown
(LEG2)
More flights by this aircraft type
Origin: KAJO Corona Mun
United States
Destination: KVCV Socal Logistics
United States
More flights between these airports :: More routes between these airports
Route: +PDZ V442 APLES
File this flight plan on PilotEdge
Remarks: I-11
Altitude:
(Current/Filed)
9,000ft
Speed:
(Current/Filed)
250kts
Departed: 17-May-19 06:30 PM
Arrived: 17-May-19 07:31 PM
Distance/Time
Traveled:
43nm/1:01
Distance/Time
To Go:
Arrived

Flight Plot

Page will automatically refresh every two minutes.


Map Options




Map Legend


Flown Route
Filed Route
Departure Airport
Arrival Airport
Navaid (VOR, NDB)
Fix

Horizontal Profiles

Position Reports

Time Latitude Longitude Heading Altitude Ground
Speed
17-May-19 18:24 33.896841 -117.601286 177 536ft 0kts
17-May-19 18:25 33.896841 -117.601286 177 536ft 0kts
17-May-19 18:26 33.896841 -117.601286 177 536ft 0kts
17-May-19 18:27 33.896841 -117.601286 177 536ft 0kts
17-May-19 18:28 33.896841 -117.601286 177 536ft 0kts
17-May-19 18:29 33.897656 -117.601089 267 536ft 81kts
17-May-19 18:30 33.918961 -117.614582 69 1841ft 148kts
17-May-19 18:31 33.911600 -117.566997 85 3703ft 150kts
17-May-19 18:32 33.921105 -117.518314 85 5493ft 154kts
17-May-19 18:33 33.887724 -117.519903 232 6369ft 186kts
17-May-19 18:34 33.859993 -117.572961 292 6882ft 201kts
17-May-19 18:35 33.904457 -117.562473 57 7405ft 227kts
17-May-19 18:36 33.925226 -117.491104 112 7350ft 260kts
17-May-19 18:37 33.865475 -117.473969 230 6567ft 247kts
17-May-19 18:38 33.868918 -117.548517 321 1725ft 231kts
17-May-19 18:39 33.896725 -117.581979 280 820ft 98kts
17-May-19 18:40 33.897278 -117.600844 90 536ft 37kts
17-May-19 18:41 33.896378 -117.597686 259 536ft 0kts
17-May-19 18:42 33.896377 -117.597688 259 536ft 0kts
17-May-19 18:43 33.896377 -117.597691 259 536ft 0kts
17-May-19 18:44 33.896376 -117.597694 259 536ft 0kts
17-May-19 18:45 33.897788 -117.607416 277 691ft 128kts
17-May-19 18:46 33.922678 -117.595941 104 2388ft 157kts
17-May-19 18:47 33.915655 -117.547141 77 3980ft 146kts
17-May-19 18:48 33.935989 -117.508874 36 5565ft 132kts
17-May-19 18:49 33.964657 -117.478132 11 7207ft 137kts
17-May-19 18:50 33.989368 -117.502806 270 8815ft 154kts
17-May-19 18:51 33.948875 -117.519407 183 8980ft 183kts
17-May-19 18:52 33.912201 -117.544575 275 8981ft 149kts
17-May-19 18:53 33.941843 -117.562376 31 8976ft 157kts
17-May-19 18:54 33.966234 -117.517322 44 8980ft 161kts
17-May-19 18:55 33.946694 -117.490490 233 8984ft 151kts
17-May-19 18:56 33.919560 -117.529045 231 8980ft 155kts
17-May-19 18:57 33.937263 -117.559112 15 8998ft 214kts
17-May-19 18:58 33.983497 -117.498682 73 8980ft 275kts
17-May-19 18:59 33.938132 -117.443518 199 8978ft 251kts
17-May-19 19:00 33.934017 -117.496295 334 8987ft 195kts
17-May-19 19:01 33.989092 -117.487364 19 8986ft 231kts
17-May-19 19:02 34.050627 -117.450735 22 8980ft 254kts
17-May-19 19:03 34.114254 -117.412370 22 8980ft 256kts
17-May-19 19:04 34.178213 -117.373824 22 8979ft 257kts
17-May-19 19:05 34.242527 -117.335009 22 8980ft 258kts
17-May-19 19:06 34.306803 -117.296158 23 8979ft 259kts
17-May-19 19:07 34.371427 -117.257028 23 8979ft 260kts
17-May-19 19:08 34.436203 -117.217737 23 8979ft 260kts
17-May-19 19:09 34.501075 -117.178323 23 8979ft 261kts
17-May-19 19:10 34.560293 -117.147795 8 8974ft 198kts
17-May-19 19:11 34.612834 -117.144772 350 8978ft 186kts
17-May-19 19:13 34.664414 -117.158877 336 8976ft 192kts
17-May-19 19:14 34.711857 -117.188970 322 8657ft 196kts
17-May-19 19:15 34.752640 -117.235244 307 7549ft 203kts
17-May-19 19:16 34.781625 -117.293665 292 6465ft 202kts
17-May-19 19:17 34.787520 -117.358936 238 5202ft 203kts
17-May-19 19:18 34.737543 -117.377080 190 4674ft 184kts
17-May-19 19:19 34.687949 -117.381889 188 4224ft 174kts
17-May-19 19:20 34.643916 -117.386315 184 3068ft 148kts
17-May-19 19:21 34.606060 -117.386638 191 3057ft 146kts
17-May-19 19:22 34.569736 -117.396930 240 3463ft 135kts
17-May-19 19:23 34.589152 -117.430511 309 4034ft 137kts
17-May-19 19:24 34.607694 -117.471572 281 4722ft 147kts
17-May-19 19:25 34.617462 -117.520939 283 5391ft 155kts
17-May-19 19:26 34.628877 -117.572149 303 5944ft 160kts
17-May-19 19:27 34.662505 -117.550786 100 5351ft 209kts
17-May-19 19:28 34.641706 -117.484107 112 4734ft 212kts
17-May-19 19:29 34.631984 -117.416051 90 4334ft 174kts
17-May-19 19:29 34.623542 -117.386507 188 2916ft 117kts
17-May-19 19:31 34.610803 -117.385509 92 2854ft 0kts
17-May-19 19:32 34.603668 -117.384147 180 2854ft 39kts
17-May-19 19:32 34.594756 -117.383881 121 2854ft 26kts
17-May-19 19:34 34.588984 -117.375888 94 2854ft 0kts

Navigation Log

Ident Type
Flight plan parsing failed, navigation log unavailable